createdAt,value
2023-04-27T00:00:24.873Z,0.00
2023-04-27T00:01:24.837Z,0.00
2023-04-27T00:02:25.060Z,0.00
2023-04-27T00:03:25.000Z,0.00
2023-04-27T00:04:25.037Z,0.00
2023-04-27T00:05:24.864Z,0.00
2023-04-27T00:06:24.780Z,0.00
2023-04-27T00:07:24.773Z,0.00
2023-04-27T00:08:24.751Z,0.00
2023-04-27T00:09:24.750Z,0.00
2023-04-27T00:10:24.722Z,0.00
2023-04-27T00:11:24.719Z,0.00
2023-04-27T00:12:24.718Z,0.00
2023-04-27T00:13:24.805Z,0.00
2023-04-27T00:14:24.698Z,0.00
2023-04-27T00:15:24.675Z,0.00
2023-04-27T00:16:24.765Z,0.00
2023-04-27T00:17:24.684Z,0.00
2023-04-27T00:18:24.630Z,0.00
2023-04-27T00:19:24.706Z,0.00
2023-04-27T00:20:24.636Z,0.00
2023-04-27T00:21:24.620Z,0.00
2023-04-27T00:22:24.616Z,0.00
2023-04-27T00:23:24.612Z,0.00
2023-04-27T00:24:24.584Z,0.00
2023-04-27T00:25:24.595Z,0.00
2023-04-27T00:26:24.587Z,0.00
2023-04-27T00:27:24.577Z,0.00
2023-04-27T00:28:24.544Z,0.00
2023-04-27T00:29:24.535Z,0.00
2023-04-27T00:30:24.518Z,0.00
2023-04-27T00:31:24.545Z,0.00
2023-04-27T00:32:24.526Z,0.00
2023-04-27T00:33:24.497Z,0.00
2023-04-27T00:34:24.487Z,0.00
2023-04-27T00:35:24.469Z,0.00
2023-04-27T00:36:24.484Z,0.00
2023-04-27T00:37:24.453Z,0.00
2023-04-27T00:38:24.442Z,0.00
2023-04-27T00:39:24.455Z,0.00
2023-04-27T00:40:24.414Z,0.00
2023-04-27T00:41:24.408Z,0.00
2023-04-27T00:42:24.397Z,0.00
2023-04-27T00:43:24.394Z,0.00
2023-04-27T00:44:24.370Z,0.00
2023-04-27T00:45:24.372Z,0.00
2023-04-27T00:46:24.442Z,0.00
2023-04-27T00:47:24.376Z,0.00
2023-04-27T00:48:24.343Z,0.00
2023-04-27T00:49:24.339Z,0.00
2023-04-27T00:50:24.295Z,0.00
2023-04-27T00:51:24.310Z,0.00
2023-04-27T00:52:24.294Z,0.00
2023-04-27T00:53:24.278Z,0.00
2023-04-27T00:54:24.269Z,0.00
2023-04-27T00:55:24.254Z,0.00
2023-04-27T00:56:24.242Z,0.00
2023-04-27T00:57:24.237Z,0.00
2023-04-27T00:58:24.222Z,0.00
2023-04-27T00:59:24.226Z,0.00
2023-04-27T01:00:24.197Z,0.00
2023-04-27T01:01:24.288Z,0.00
2023-04-27T01:02:24.237Z,0.00
2023-04-27T01:03:24.337Z,0.00
2023-04-27T01:04:24.224Z,0.00
2023-04-27T01:05:24.155Z,0.00
2023-04-27T01:06:24.141Z,0.00
2023-04-27T01:07:24.124Z,0.00
2023-04-27T01:08:24.108Z,0.00
2023-04-27T01:09:24.114Z,0.00
2023-04-27T01:10:24.074Z,0.00
2023-04-27T01:11:24.073Z,0.00
2023-04-27T01:12:24.058Z,0.00
2023-04-27T01:13:24.053Z,0.00
2023-04-27T01:14:24.080Z,0.00
2023-04-27T01:15:24.043Z,0.00
2023-04-27T01:16:24.028Z,0.00
2023-04-27T01:17:24.036Z,0.00
2023-04-27T01:18:23.996Z,0.00
2023-04-27T01:19:23.999Z,0.00
2023-04-27T01:20:23.977Z,0.00
2023-04-27T01:21:23.987Z,0.00
2023-04-27T01:22:23.944Z,0.00
2023-04-27T01:23:23.957Z,0.00
2023-04-27T01:24:23.925Z,0.00
2023-04-27T01:25:23.923Z,0.00
2023-04-27T01:26:23.917Z,0.00
2023-04-27T01:27:23.905Z,0.00
2023-04-27T01:28:23.884Z,0.00
2023-04-27T01:29:23.887Z,0.00
2023-04-27T01:30:23.854Z,0.00
2023-04-27T01:31:23.885Z,0.00
2023-04-27T01:32:23.902Z,0.00
2023-04-27T01:33:23.852Z,0.00
2023-04-27T01:34:23.817Z,0.00
2023-04-27T01:35:24.750Z,0.00
2023-04-27T01:36:23.815Z,0.00
2023-04-27T01:37:23.811Z,0.00
2023-04-27T01:38:23.787Z,0.00
2023-04-27T01:39:23.783Z,0.00
2023-04-27T01:40:23.769Z,0.00
2023-04-27T01:41:23.756Z,0.00
2023-04-27T01:42:23.733Z,0.00
2023-04-27T01:43:23.734Z,0.00
2023-04-27T01:44:23.712Z,0.00
2023-04-27T01:45:23.718Z,0.00
2023-04-27T01:46:23.723Z,0.00
2023-04-27T01:47:23.712Z,0.00
2023-04-27T01:48:23.679Z,0.00
2023-04-27T01:49:23.669Z,0.00
2023-04-27T01:50:23.664Z,0.00
2023-04-27T01:51:23.658Z,0.00
2023-04-27T01:52:23.646Z,0.00
2023-04-27T01:53:23.625Z,0.00
2023-04-27T01:54:23.625Z,0.00
2023-04-27T01:55:23.605Z,0.00
2023-04-27T01:56:23.589Z,0.00
2023-04-27T01:57:23.587Z,0.00
2023-04-27T01:58:23.561Z,0.00
2023-04-27T01:59:23.568Z,0.00
2023-04-27T02:00:23.545Z,0.00
2023-04-27T02:01:23.573Z,0.00
2023-04-27T02:02:23.732Z,0.00
2023-04-27T02:03:23.596Z,0.00
2023-04-27T02:04:23.673Z,0.00
2023-04-27T02:05:23.495Z,0.00
2023-04-27T02:06:23.497Z,0.00
2023-04-27T02:07:23.493Z,0.00
2023-04-27T02:08:23.456Z,0.00
2023-04-27T02:09:23.462Z,0.00
2023-04-27T02:10:23.457Z,0.00
2023-04-27T02:11:23.438Z,0.00
2023-04-27T02:12:23.451Z,0.00
2023-04-27T02:13:23.415Z,0.00
2023-04-27T02:14:23.397Z,0.00
2023-04-27T02:15:23.400Z,0.00
2023-04-27T02:16:23.420Z,0.00
2023-04-27T02:17:23.385Z,0.00
2023-04-27T02:18:23.349Z,0.00
2023-04-27T02:19:23.349Z,0.00
2023-04-27T02:20:23.336Z,0.00
2023-04-27T02:21:23.337Z,0.00
2023-04-27T02:22:23.306Z,0.00
2023-04-27T02:23:23.300Z,0.00
2023-04-27T02:24:23.284Z,0.00
2023-04-27T02:25:23.289Z,0.00
2023-04-27T02:26:23.286Z,0.00
2023-04-27T02:27:23.263Z,0.00
2023-04-27T02:28:23.246Z,0.00
2023-04-27T02:29:23.241Z,0.00
2023-04-27T02:30:23.226Z,0.00
2023-04-27T02:31:23.330Z,0.00
2023-04-27T02:32:23.220Z,0.00
2023-04-27T02:33:23.198Z,0.00
2023-04-27T02:34:23.206Z,0.00
2023-04-27T02:35:23.177Z,0.00
2023-04-27T02:36:23.174Z,0.00
2023-04-27T02:37:23.150Z,0.00
2023-04-27T02:38:23.138Z,0.00
2023-04-27T02:39:23.132Z,0.00
2023-04-27T02:40:23.114Z,0.00
2023-04-27T02:41:23.122Z,0.00
2023-04-27T02:42:23.092Z,0.00
2023-04-27T02:43:23.090Z,0.00
2023-04-27T02:44:23.076Z,0.00
2023-04-27T02:45:23.066Z,0.00
2023-04-27T02:46:23.114Z,0.00
2023-04-27T02:47:23.057Z,0.00
2023-04-27T02:48:23.038Z,0.00
2023-04-27T02:49:23.048Z,0.00
2023-04-27T02:50:23.012Z,0.00
2023-04-27T02:51:23.009Z,0.00
2023-04-27T02:52:22.977Z,0.00
2023-04-27T02:53:22.988Z,0.00
2023-04-27T02:54:22.973Z,0.00
2023-04-27T02:55:22.968Z,0.00
2023-04-27T02:56:22.945Z,0.00
2023-04-27T02:57:22.937Z,0.00
2023-04-27T02:58:22.943Z,0.00
2023-04-27T02:59:22.912Z,0.00
2023-04-27T03:00:23.278Z,0.00
2023-04-27T03:01:23.013Z,0.00
2023-04-27T03:02:22.943Z,0.00
2023-04-27T03:03:23.066Z,0.00
2023-04-27T03:04:22.929Z,0.00
2023-04-27T03:05:22.846Z,0.00
2023-04-27T03:06:22.864Z,0.00
2023-04-27T03:07:22.830Z,0.00
2023-04-27T03:08:22.857Z,0.00
2023-04-27T03:09:22.810Z,0.00
2023-04-27T03:10:22.811Z,0.00
2023-04-27T03:11:22.787Z,0.00
2023-04-27T03:12:22.783Z,0.00
2023-04-27T03:13:22.794Z,0.00
2023-04-27T03:14:22.750Z,0.00
2023-04-27T03:15:22.746Z,0.00
2023-04-27T03:16:22.813Z,0.00
2023-04-27T03:17:22.739Z,0.00
2023-04-27T03:18:22.721Z,0.00
2023-04-27T03:19:22.721Z,0.00
2023-04-27T03:20:22.716Z,0.00
2023-04-27T03:21:22.707Z,0.00
2023-04-27T03:22:22.683Z,0.00
2023-04-27T03:23:22.666Z,0.00
2023-04-27T03:24:22.665Z,0.00
2023-04-27T03:25:22.645Z,0.00
2023-04-27T03:26:22.632Z,0.00
2023-04-27T03:27:22.621Z,0.00
2023-04-27T03:28:22.622Z,0.00
2023-04-27T03:29:22.592Z,0.00
2023-04-27T03:30:22.586Z,0.00
2023-04-27T03:31:22.681Z,0.00
2023-04-27T03:32:22.564Z,0.00
2023-04-27T03:33:22.573Z,0.00
2023-04-27T03:34:22.572Z,0.00
2023-04-27T03:35:22.530Z,0.00
2023-04-27T03:36:22.524Z,0.00
2023-04-27T03:37:22.506Z,0.00
2023-04-27T03:38:22.522Z,0.00
2023-04-27T03:39:22.492Z,0.00
2023-04-27T03:40:22.486Z,0.00
2023-04-27T03:41:22.464Z,0.00
2023-04-27T03:42:22.465Z,0.00
2023-04-27T03:43:22.708Z,0.00
2023-04-27T03:44:22.443Z,0.00
2023-04-27T03:45:22.468Z,0.00
2023-04-27T03:46:22.454Z,0.00
2023-04-27T03:47:22.522Z,0.00
2023-04-27T03:48:22.400Z,0.00
2023-04-27T03:49:22.394Z,0.00
2023-04-27T03:50:22.396Z,0.00
2023-04-27T03:51:22.366Z,0.00
2023-04-27T03:52:22.430Z,0.00
2023-04-27T03:53:22.336Z,0.00
2023-04-27T03:54:22.352Z,0.00
2023-04-27T03:55:22.330Z,0.00
2023-04-27T03:56:22.322Z,0.00
2023-04-27T03:57:22.304Z,0.00
2023-04-27T03:58:22.295Z,0.00
2023-04-27T03:59:22.471Z,0.00
2023-04-27T04:00:22.331Z,0.00
2023-04-27T04:01:22.253Z,0.00
2023-04-27T04:02:22.429Z,0.00
2023-04-27T04:03:22.547Z,0.00
2023-04-27T04:04:22.452Z,0.00
2023-04-27T04:05:22.236Z,0.00
2023-04-27T04:06:22.221Z,0.00
2023-04-27T04:07:22.214Z,0.00
2023-04-27T04:08:22.188Z,0.00
2023-04-27T04:09:23.908Z,0.00
2023-04-27T04:10:22.164Z,0.00
2023-04-27T04:11:22.168Z,0.00
2023-04-27T04:12:22.143Z,0.00
2023-04-27T04:13:22.136Z,0.00
2023-04-27T04:14:22.122Z,0.00
2023-04-27T04:15:22.125Z,0.00
2023-04-27T04:16:22.169Z,0.00
2023-04-27T04:17:22.137Z,5.62
2023-04-27T04:18:22.081Z,5.62
2023-04-27T04:19:22.372Z,5.62
2023-04-27T04:20:22.063Z,5.62
2023-04-27T04:21:22.048Z,5.62
2023-04-27T04:22:22.040Z,5.62
2023-04-27T04:23:22.021Z,5.62
2023-04-27T04:24:22.107Z,5.62
2023-04-27T04:25:22.016Z,5.62
2023-04-27T04:26:21.988Z,5.62
2023-04-27T04:27:21.989Z,5.62
2023-04-27T04:28:21.975Z,5.62
2023-04-27T04:29:21.955Z,11.25
2023-04-27T04:30:21.980Z,11.25
2023-04-27T04:31:21.957Z,11.25
2023-04-27T04:32:21.937Z,11.25
2023-04-27T04:33:21.914Z,11.25
2023-04-27T04:34:21.916Z,11.25
2023-04-27T04:35:21.903Z,11.25
2023-04-27T04:36:21.897Z,16.88
2023-04-27T04:37:21.877Z,16.88
2023-04-27T04:38:22.385Z,16.88
2023-04-27T04:39:21.867Z,16.88
2023-04-27T04:40:21.846Z,16.88
2023-04-27T04:41:21.969Z,16.88
2023-04-27T04:42:22.378Z,16.88
2023-04-27T04:43:22.587Z,22.50
2023-04-27T04:44:23.061Z,22.50
2023-04-27T04:45:21.943Z,22.50
2023-04-27T04:46:21.871Z,22.50
2023-04-27T04:47:21.832Z,22.50
2023-04-27T04:48:22.548Z,22.50
2023-04-27T04:49:21.818Z,28.12
2023-04-27T04:50:21.819Z,28.12
2023-04-27T04:51:21.754Z,28.12
2023-04-27T04:52:21.849Z,28.12
2023-04-27T04:53:21.732Z,28.12
2023-04-27T04:54:21.702Z,33.75
2023-04-27T04:55:21.710Z,33.75
2023-04-27T04:56:21.702Z,33.75
2023-04-27T04:57:22.126Z,33.75
2023-04-27T04:58:21.691Z,33.75
2023-04-27T04:59:21.667Z,39.38
2023-04-27T05:00:21.666Z,39.38
2023-04-27T05:01:21.647Z,39.38
2023-04-27T05:02:21.651Z,39.38
2023-04-27T05:03:21.993Z,39.38
2023-04-27T05:04:21.797Z,45.00
2023-04-27T05:05:21.719Z,45.00
2023-04-27T05:06:21.892Z,45.00
2023-04-27T05:07:24.727Z,45.00
2023-04-27T05:08:21.565Z,45.00
2023-04-27T05:09:21.591Z,50.62
2023-04-27T05:10:21.527Z,50.62
2023-04-27T05:11:21.808Z,50.62
2023-04-27T05:12:21.524Z,50.62
2023-04-27T05:13:21.493Z,50.62
2023-04-27T05:14:21.491Z,50.62
2023-04-27T05:15:21.480Z,56.25
2023-04-27T05:16:21.561Z,56.25
2023-04-27T05:17:21.521Z,56.25
2023-04-27T05:18:21.765Z,56.25
2023-04-27T05:19:21.466Z,56.25
2023-04-27T05:20:21.752Z,61.88
2023-04-27T05:21:21.412Z,61.88
2023-04-27T05:22:21.410Z,61.88
2023-04-27T05:23:21.725Z,61.88
2023-04-27T05:24:21.432Z,67.50
2023-04-27T05:25:21.381Z,67.50
2023-04-27T05:26:21.361Z,67.50
2023-04-27T05:27:21.349Z,67.50
2023-04-27T05:28:21.356Z,67.50
2023-04-27T05:29:21.325Z,67.50
2023-04-27T05:30:21.342Z,73.12
2023-04-27T05:31:21.711Z,67.50
2023-04-27T05:32:21.469Z,73.12
2023-04-27T05:33:21.282Z,73.12
2023-04-27T05:34:21.569Z,78.75
2023-04-27T05:35:21.260Z,78.75
2023-04-27T05:36:21.249Z,78.75
2023-04-27T05:37:21.249Z,78.75
2023-04-27T05:38:22.360Z,78.75
2023-04-27T05:39:21.879Z,84.38
2023-04-27T05:40:21.237Z,84.38
2023-04-27T05:41:21.207Z,84.38
2023-04-27T05:42:21.211Z,84.38
2023-04-27T05:43:21.177Z,84.38
2023-04-27T05:44:21.193Z,90.00
2023-04-27T05:45:21.156Z,90.00
2023-04-27T05:46:21.302Z,90.00
2023-04-27T05:47:21.161Z,90.00
2023-04-27T05:48:21.173Z,95.62
2023-04-27T05:49:21.921Z,95.62
2023-04-27T05:50:21.114Z,95.62
2023-04-27T05:51:21.757Z,95.62
2023-04-27T05:52:21.290Z,95.62
2023-04-27T05:53:21.596Z,101.25
2023-04-27T05:54:21.077Z,101.25
2023-04-27T05:55:21.651Z,101.25
2023-04-27T05:56:22.044Z,106.88
2023-04-27T05:57:21.026Z,106.88
2023-04-27T05:58:21.025Z,106.88
2023-04-27T05:59:21.476Z,106.88
2023-04-27T06:00:21.006Z,112.50
2023-04-27T06:01:20.985Z,112.50
2023-04-27T06:02:21.096Z,112.50
2023-04-27T06:03:21.377Z,112.50
2023-04-27T06:04:21.003Z,112.50
2023-04-27T06:05:20.954Z,112.50
2023-04-27T06:06:20.954Z,118.12
2023-04-27T06:07:20.919Z,123.75
2023-04-27T06:08:20.924Z,123.75
2023-04-27T06:09:22.688Z,123.75
2023-04-27T06:10:20.895Z,118.12
2023-04-27T06:11:20.881Z,123.75
2023-04-27T06:12:20.880Z,118.12
2023-04-27T06:13:20.859Z,123.75
2023-04-27T06:14:20.874Z,123.75
2023-04-27T06:15:20.832Z,123.75
2023-04-27T06:16:21.055Z,123.75
2023-04-27T06:17:20.814Z,123.75
2023-04-27T06:18:21.540Z,129.38
2023-04-27T06:19:21.275Z,129.38
2023-04-27T06:20:21.854Z,129.38
2023-04-27T06:21:20.795Z,129.38
2023-04-27T06:22:21.489Z,129.38
2023-04-27T06:23:20.776Z,129.38
2023-04-27T06:24:21.749Z,135.00
2023-04-27T06:25:21.076Z,135.00
2023-04-27T06:26:21.529Z,140.62
2023-04-27T06:27:20.719Z,135.00
2023-04-27T06:28:21.085Z,140.62
2023-04-27T06:29:20.839Z,135.00
2023-04-27T06:30:20.722Z,140.62
2023-04-27T06:31:20.701Z,140.62
2023-04-27T06:32:21.479Z,140.62
2023-04-27T06:33:20.651Z,140.62
2023-04-27T06:34:20.682Z,140.62
2023-04-27T06:35:20.643Z,140.62
2023-04-27T06:36:20.633Z,135.00
2023-04-27T06:37:20.593Z,135.00
2023-04-27T06:38:20.591Z,135.00
2023-04-27T06:39:20.573Z,135.00
2023-04-27T06:40:20.599Z,135.00
2023-04-27T06:41:20.574Z,135.00
2023-04-27T06:42:20.569Z,140.62
2023-04-27T06:43:20.536Z,146.25
2023-04-27T06:44:20.532Z,151.88
2023-04-27T06:45:20.510Z,157.50
2023-04-27T06:46:20.999Z,157.50
2023-04-27T06:47:20.491Z,157.50
2023-04-27T06:48:20.525Z,163.12
2023-04-27T06:49:20.572Z,163.12
2023-04-27T06:50:20.468Z,163.12
2023-04-27T06:51:20.474Z,163.12
2023-04-27T06:52:20.473Z,168.75
2023-04-27T06:53:20.432Z,163.12
2023-04-27T06:54:20.426Z,163.12
2023-04-27T06:55:20.404Z,168.75
2023-04-27T06:56:20.422Z,163.12
2023-04-27T06:57:20.399Z,163.12
2023-04-27T06:58:20.384Z,157.50
2023-04-27T06:59:20.362Z,163.12
2023-04-27T07:00:20.368Z,163.12
2023-04-27T07:01:20.650Z,168.75
2023-04-27T07:02:20.406Z,168.75
2023-04-27T07:03:20.445Z,174.38
2023-04-27T07:04:20.431Z,180.00
2023-04-27T07:05:20.308Z,185.62
2023-04-27T07:06:20.329Z,185.62
2023-04-27T07:07:20.287Z,191.25
2023-04-27T07:08:20.280Z,191.25
2023-04-27T07:09:27.476Z,191.25
2023-04-27T07:10:21.284Z,191.25
2023-04-27T07:11:20.243Z,196.88
2023-04-27T07:12:20.234Z,191.25
2023-04-27T07:13:20.283Z,185.62
2023-04-27T07:14:20.546Z,185.62
2023-04-27T07:15:20.250Z,185.62
2023-04-27T07:16:20.245Z,174.38
2023-04-27T07:17:20.302Z,174.38
2023-04-27T07:18:20.169Z,168.75
2023-04-27T07:19:20.174Z,151.88
2023-04-27T07:20:20.333Z,140.62
2023-04-27T07:21:20.138Z,123.75
2023-04-27T07:22:20.406Z,101.25
2023-04-27T07:23:20.149Z,90.00
2023-04-27T07:24:20.113Z,78.75
2023-04-27T07:25:20.118Z,78.75
2023-04-27T07:26:20.077Z,78.75
2023-04-27T07:27:20.070Z,78.75
2023-04-27T07:28:20.075Z,78.75
2023-04-27T07:29:26.999Z,84.38
2023-04-27T07:30:21.410Z,90.00
2023-04-27T07:31:20.084Z,106.88
2023-04-27T07:32:20.110Z,112.50
2023-04-27T07:33:20.007Z,118.12
2023-04-27T07:34:20.290Z,118.12
2023-04-27T07:35:19.988Z,112.50
2023-04-27T07:36:19.977Z,112.50
2023-04-27T07:37:20.113Z,112.50
2023-04-27T07:38:19.957Z,112.50
2023-04-27T07:39:19.960Z,112.50
2023-04-27T07:40:19.930Z,118.12
2023-04-27T07:41:19.972Z,123.75
2023-04-27T07:42:19.914Z,123.75
2023-04-27T07:43:19.945Z,123.75
2023-04-27T07:44:20.177Z,123.75
2023-04-27T07:45:19.949Z,123.75
2023-04-27T07:46:19.909Z,123.75
2023-04-27T07:47:19.864Z,118.12
2023-04-27T07:48:19.867Z,123.75
2023-04-27T07:49:19.840Z,129.38
2023-04-27T07:50:19.811Z,135.00
2023-04-27T07:51:19.810Z,135.00
2023-04-27T07:52:20.102Z,140.62
2023-04-27T07:53:19.795Z,135.00
2023-04-27T07:54:19.772Z,146.25
2023-04-27T07:55:19.768Z,140.62
2023-04-27T07:56:19.802Z,140.62
2023-04-27T07:57:19.745Z,129.38
2023-04-27T07:58:19.724Z,129.38
2023-04-27T07:59:19.991Z,123.75
2023-04-27T08:00:19.712Z,123.75
2023-04-27T08:01:21.404Z,129.38
2023-04-27T08:02:20.501Z,129.38
2023-04-27T08:03:19.951Z,135.00
2023-04-27T08:04:20.029Z,135.00
2023-04-27T08:05:19.919Z,135.00
2023-04-27T08:06:19.911Z,129.38
2023-04-27T08:07:19.895Z,135.00
2023-04-27T08:08:19.854Z,140.62
2023-04-27T08:09:20.416Z,135.00
2023-04-27T08:10:19.603Z,135.00
2023-04-27T08:11:19.613Z,129.38
2023-04-27T08:12:19.578Z,123.75
2023-04-27T08:13:19.570Z,123.75
2023-04-27T08:14:19.563Z,118.12
2023-04-27T08:15:19.556Z,123.75
2023-04-27T08:16:19.572Z,129.38
2023-04-27T08:17:19.593Z,135.00
2023-04-27T08:18:19.543Z,140.62
2023-04-27T08:19:19.538Z,135.00
2023-04-27T08:20:20.307Z,135.00
2023-04-27T08:21:19.490Z,135.00
2023-04-27T08:22:19.483Z,140.62
2023-04-27T08:23:19.462Z,140.62
2023-04-27T08:24:19.461Z,135.00
2023-04-27T08:25:19.469Z,129.38
2023-04-27T08:26:19.431Z,123.75
2023-04-27T08:27:19.440Z,118.12
2023-04-27T08:28:19.413Z,123.75
2023-04-27T08:29:27.693Z,135.00
2023-04-27T08:30:20.411Z,140.62
2023-04-27T08:31:19.426Z,146.25
2023-04-27T08:32:19.643Z,146.25
2023-04-27T08:33:19.364Z,151.88
2023-04-27T08:34:19.341Z,146.25
2023-04-27T08:35:19.345Z,140.62
2023-04-27T08:36:19.322Z,135.00
2023-04-27T08:37:19.336Z,135.00
2023-04-27T08:38:19.297Z,135.00
2023-04-27T08:39:19.567Z,140.62
2023-04-27T08:40:19.285Z,146.25
2023-04-27T08:41:21.997Z,146.25
2023-04-27T08:42:19.259Z,151.88
2023-04-27T08:43:19.250Z,146.25
2023-04-27T08:44:19.254Z,135.00
2023-04-27T08:45:19.229Z,129.38
2023-04-27T08:46:19.510Z,129.38
2023-04-27T08:47:28.154Z,123.75
2023-04-27T08:48:20.281Z,129.38
2023-04-27T08:49:19.390Z,135.00
2023-04-27T08:50:19.185Z,146.25
2023-04-27T08:51:19.180Z,151.88
2023-04-27T08:52:19.427Z,151.88
2023-04-27T08:53:19.148Z,151.88
2023-04-27T08:54:19.134Z,163.12
2023-04-27T08:55:19.136Z,168.75
2023-04-27T08:56:19.126Z,174.38
2023-04-27T08:57:19.131Z,180.00
2023-04-27T08:58:19.102Z,185.62
2023-04-27T08:59:19.087Z,191.25
2023-04-27T09:00:19.067Z,191.25
2023-04-27T09:01:19.109Z,196.88
2023-04-27T09:02:19.115Z,202.50
2023-04-27T09:03:19.233Z,202.50
2023-04-27T09:04:19.312Z,208.12
2023-04-27T09:05:19.109Z,202.50
2023-04-27T09:06:19.035Z,196.88
2023-04-27T09:07:18.997Z,196.88
2023-04-27T09:08:18.980Z,191.25
2023-04-27T09:09:18.972Z,196.88
2023-04-27T09:10:18.961Z,202.50
2023-04-27T09:11:18.956Z,219.38
2023-04-27T09:12:18.954Z,225.00
2023-04-27T09:13:18.963Z,236.25
2023-04-27T09:14:18.921Z,236.25
2023-04-27T09:15:18.909Z,241.88
2023-04-27T09:16:18.947Z,241.88
2023-04-27T09:17:18.952Z,241.88
2023-04-27T09:18:18.875Z,236.25
2023-04-27T09:19:18.878Z,241.88
2023-04-27T09:20:18.854Z,247.50
2023-04-27T09:21:18.842Z,253.12
2023-04-27T09:22:19.600Z,258.75
2023-04-27T09:23:18.846Z,264.38
2023-04-27T09:24:18.809Z,264.38
2023-04-27T09:25:18.861Z,286.88
2023-04-27T09:26:18.837Z,281.25
2023-04-27T09:27:18.804Z,281.25
2023-04-27T09:28:18.788Z,281.25
2023-04-27T09:29:18.760Z,270.00
2023-04-27T09:30:18.772Z,270.00
2023-04-27T09:31:18.796Z,281.25
2023-04-27T09:32:18.731Z,270.00
2023-04-27T09:33:18.760Z,264.38
2023-04-27T09:34:18.705Z,270.00
2023-04-27T09:35:18.744Z,275.62
2023-04-27T09:36:18.684Z,270.00
2023-04-27T09:37:18.673Z,264.38
2023-04-27T09:38:18.686Z,264.38
2023-04-27T09:39:18.655Z,264.38
2023-04-27T09:40:18.652Z,264.38
2023-04-27T09:41:18.842Z,253.12
2023-04-27T09:42:19.491Z,247.50
2023-04-27T09:43:19.048Z,236.25
2023-04-27T09:44:19.210Z,230.62
2023-04-27T09:45:18.933Z,241.88
2023-04-27T09:46:18.644Z,236.25
2023-04-27T09:47:18.906Z,236.25
2023-04-27T09:48:19.358Z,241.88
2023-04-27T09:49:18.659Z,247.50
2023-04-27T09:50:19.468Z,247.50
2023-04-27T09:51:18.552Z,236.25
2023-04-27T09:52:18.533Z,225.00
2023-04-27T09:53:18.503Z,213.75
2023-04-27T09:54:18.576Z,213.75
2023-04-27T09:55:18.862Z,219.38
2023-04-27T09:56:18.468Z,230.62
2023-04-27T09:57:18.477Z,247.50
2023-04-27T09:58:18.439Z,253.12
2023-04-27T09:59:18.441Z,247.50
2023-04-27T10:00:18.485Z,236.25
2023-04-27T10:01:18.435Z,213.75
2023-04-27T10:02:25.296Z,213.75
2023-04-27T10:03:19.493Z,225.00
2023-04-27T10:04:18.619Z,219.38
2023-04-27T10:05:18.696Z,225.00
2023-04-27T10:06:18.403Z,219.38
2023-04-27T10:07:18.414Z,219.38
2023-04-27T10:08:18.341Z,213.75
2023-04-27T10:09:18.355Z,213.75
2023-04-27T10:10:18.693Z,196.88
2023-04-27T10:11:18.322Z,219.38
2023-04-27T10:12:18.346Z,230.62
2023-04-27T10:13:18.286Z,230.62
2023-04-27T10:14:18.295Z,225.00
2023-04-27T10:15:18.337Z,219.38
2023-04-27T10:16:18.301Z,225.00
2023-04-27T10:17:18.253Z,230.62
2023-04-27T10:18:18.221Z,236.25
2023-04-27T10:19:18.231Z,241.88
2023-04-27T10:20:18.269Z,247.50
2023-04-27T10:21:18.492Z,241.88
2023-04-27T10:22:18.182Z,236.25
2023-04-27T10:23:18.182Z,225.00
2023-04-27T10:24:18.163Z,230.62
2023-04-27T10:25:18.154Z,241.88
2023-04-27T10:26:18.167Z,247.50
2023-04-27T10:27:18.136Z,253.12
2023-04-27T10:28:18.122Z,258.75
2023-04-27T10:29:18.117Z,264.38
2023-04-27T10:30:18.154Z,253.12
2023-04-27T10:31:18.147Z,247.50
2023-04-27T10:32:18.210Z,247.50
2023-04-27T10:33:18.083Z,247.50
2023-04-27T10:34:19.882Z,247.50
2023-04-27T10:35:18.062Z,253.12
2023-04-27T10:36:18.090Z,253.12
2023-04-27T10:37:18.058Z,264.38
2023-04-27T10:38:18.320Z,275.62
2023-04-27T10:39:18.008Z,286.88
2023-04-27T10:40:18.217Z,292.50
2023-04-27T10:41:17.991Z,298.12
2023-04-27T10:42:17.992Z,298.12
2023-04-27T10:43:18.260Z,292.50
2023-04-27T10:44:17.956Z,309.38
2023-04-27T10:45:18.024Z,309.38
2023-04-27T10:46:18.287Z,315.00
2023-04-27T10:47:17.976Z,320.62
2023-04-27T10:48:17.922Z,303.75
2023-04-27T10:49:18.016Z,292.50
2023-04-27T10:50:18.245Z,292.50
2023-04-27T10:51:18.042Z,298.12
2023-04-27T10:52:18.204Z,309.38
2023-04-27T10:53:17.897Z,326.25
2023-04-27T10:54:18.562Z,343.12
2023-04-27T10:55:17.899Z,360.00
2023-04-27T10:56:18.557Z,376.88
2023-04-27T10:57:17.856Z,382.50
2023-04-27T10:58:17.957Z,388.12
2023-04-27T10:59:18.403Z,393.75
2023-04-27T11:00:18.518Z,382.50
2023-04-27T11:01:17.836Z,399.38
2023-04-27T11:02:18.661Z,405.00
2023-04-27T11:03:17.853Z,416.25
2023-04-27T11:04:17.952Z,433.12
2023-04-27T11:05:17.769Z,444.38
2023-04-27T11:06:17.815Z,450.00
2023-04-27T11:07:17.717Z,455.62
2023-04-27T11:08:18.651Z,455.62
2023-04-27T11:09:18.025Z,444.38
2023-04-27T11:10:17.771Z,444.38
2023-04-27T11:11:17.933Z,455.62
2023-04-27T11:12:17.852Z,433.12
2023-04-27T11:13:17.672Z,450.00
2023-04-27T11:14:18.027Z,444.38
2023-04-27T11:15:17.742Z,433.12
2023-04-27T11:16:17.883Z,433.12
2023-04-27T11:17:17.603Z,427.50
2023-04-27T11:18:17.603Z,421.88
2023-04-27T11:19:17.577Z,427.50
2023-04-27T11:20:17.581Z,444.38
2023-04-27T11:21:17.565Z,466.88
2023-04-27T11:22:17.707Z,489.38
2023-04-27T11:23:17.540Z,489.38
2023-04-27T11:24:17.528Z,438.75
2023-04-27T11:25:18.298Z,421.88
2023-04-27T11:26:17.501Z,421.88
2023-04-27T11:27:17.494Z,433.12
2023-04-27T11:28:17.484Z,450.00
2023-04-27T11:29:17.652Z,455.62
2023-04-27T11:30:18.258Z,455.62
2023-04-27T11:31:17.508Z,455.62
2023-04-27T11:32:17.438Z,466.88
2023-04-27T11:33:17.431Z,489.38
2023-04-27T11:34:17.437Z,506.25
2023-04-27T11:35:17.486Z,517.50
2023-04-27T11:36:17.408Z,517.50
2023-04-27T11:37:18.752Z,528.75
2023-04-27T11:38:17.404Z,528.75
2023-04-27T11:39:17.489Z,540.00
2023-04-27T11:40:18.123Z,540.00
2023-04-27T11:41:17.341Z,545.62
2023-04-27T11:42:17.334Z,545.62
2023-04-27T11:43:17.321Z,551.25
2023-04-27T11:44:17.316Z,540.00
2023-04-27T11:45:17.312Z,540.00
2023-04-27T11:46:17.349Z,534.38
2023-04-27T11:47:18.911Z,528.75
2023-04-27T11:48:17.281Z,528.75
2023-04-27T11:49:17.291Z,540.00
2023-04-27T11:50:17.281Z,545.62
2023-04-27T11:51:17.242Z,579.38
2023-04-27T11:52:17.238Z,613.12
2023-04-27T11:53:18.982Z,624.38
2023-04-27T11:54:17.567Z,618.75
2023-04-27T11:55:17.193Z,618.75
2023-04-27T11:56:17.186Z,624.38
2023-04-27T11:57:17.948Z,635.62
2023-04-27T11:58:17.173Z,641.25
2023-04-27T11:59:17.153Z,624.38
2023-04-27T12:00:17.409Z,618.75
2023-04-27T12:01:24.797Z,613.12
2023-04-27T12:02:18.178Z,624.38
2023-04-27T12:03:18.301Z,686.25
2023-04-27T12:04:17.686Z,720.00
2023-04-27T12:05:17.688Z,748.12
2023-04-27T12:07:17.796Z,787.50
2023-04-27T12:08:17.095Z,804.38
2023-04-27T12:09:17.764Z,860.62
2023-04-27T12:10:17.055Z,905.62
2023-04-27T12:11:17.149Z,916.88
2023-04-27T12:12:17.032Z,928.12
2023-04-27T12:13:17.313Z,945.00
2023-04-27T12:14:17.191Z,995.62
2023-04-27T12:15:17.807Z,1029.38
2023-04-27T12:16:17.064Z,1040.62
2023-04-27T12:17:17.032Z,1057.50
2023-04-27T12:18:16.981Z,978.75
2023-04-27T12:19:17.048Z,928.12
2023-04-27T12:20:16.944Z,916.88
2023-04-27T12:21:16.974Z,978.75
2023-04-27T12:22:16.926Z,1001.25
2023-04-27T12:23:17.922Z,1063.12
2023-04-27T12:24:17.040Z,1091.25
2023-04-27T12:25:16.882Z,1102.50
2023-04-27T12:26:16.863Z,1085.62
2023-04-27T12:27:17.620Z,1096.88
2023-04-27T12:28:16.847Z,1051.88
2023-04-27T12:29:16.860Z,1192.50
2023-04-27T12:30:16.891Z,1220.62
2023-04-27T12:31:16.860Z,1215.00
2023-04-27T12:32:17.094Z,1198.12
2023-04-27T12:33:16.889Z,1096.88
2023-04-27T12:34:16.998Z,1209.38
2023-04-27T12:35:16.766Z,1181.25
2023-04-27T12:36:17.191Z,1141.88
2023-04-27T12:37:17.061Z,1175.62
2023-04-27T12:38:16.741Z,1231.88
2023-04-27T12:39:16.800Z,1265.62
2023-04-27T12:40:16.821Z,1310.62
2023-04-27T12:41:16.719Z,1299.38
2023-04-27T12:42:16.698Z,1265.62
2023-04-27T12:43:16.711Z,1237.50
2023-04-27T12:44:17.386Z,1209.38
2023-04-27T12:45:16.694Z,1147.50
2023-04-27T12:46:16.704Z,1119.38
2023-04-27T12:47:34.546Z,1091.25
2023-04-27T12:48:17.763Z,1108.12